Time;durP1;ratioP1;P1;durP2;ratioP2;P2;SDS_P1;SDS_P2;PMS_P1;PMS_P2;Temp;Humidity;BMP_temperature;BMP_pressure;BME280_temperature;BME280_humidity;BME280_pressure;Samples;Min_cycle;Max_cycle;Signal;HPM_P1;HPM_P2
2023/12/27 00:01:17;;;;;;;12.43;1.70;;;;;;;;;;4986061;28;20042;-47
2023/12/27 00:03:45;;;;;;;10.38;1.58;;;;;;;;;;4967964;28;20489;-45
2023/12/27 00:06:13;;;;;;;11.82;2.30;;;;;;;;;;4980276;28;20061;-52
2023/12/27 00:08:41;;;;;;;9.20;1.70;;;;;;;;;;4973616;28;20056;-49
2023/12/27 00:11:08;;;;;;;10.93;1.80;;;;;;;;;;4982545;28;20107;-46
2023/12/27 00:13:38;;;;;;;11.93;2.27;;;;;;;;;;4976220;28;20652;-47
2023/12/27 00:16:06;;;;;;;13.63;1.92;;;;;;;;;;4970723;28;20511;-46
2023/12/27 00:18:33;;;;;;;17.55;1.80;;;;;;;;;;4985678;28;20057;-45
2023/12/27 00:21:01;;;;;;;13.43;1.77;;;;;;;;;;4973028;28;20034;-47
2023/12/27 00:23:29;;;;;;;13.02;1.80;;;;;;;;;;4982978;28;20536;-47
2023/12/27 00:25:57;;;;;;;13.17;1.80;;;;;;;;;;4966348;28;20041;-46
2023/12/27 00:28:26;;;;;;;15.30;1.85;;;;;;;;;;4973122;28;20048;-45
2023/12/27 00:30:55;;;;;;;13.05;1.63;;;;;;;;;;4856524;28;20046;-48
2023/12/27 00:33:23;;;;;;;14.75;1.90;;;;;;;;;;4978659;28;20042;-45
2023/12/27 00:35:51;;;;;;;13.13;1.70;;;;;;;;;;4971453;28;21155;-45
2023/12/27 00:38:19;;;;;;;15.63;1.70;;;;;;;;;;4975786;28;20034;-45
2023/12/27 00:40:46;;;;;;;17.27;1.70;;;;;;;;;;4966155;28;20037;-45
2023/12/27 00:43:15;;;;;;;14.13;1.60;;;;;;;;;;4979350;28;20281;-47
2023/12/27 00:45:43;;;;;;;11.98;1.48;;;;;;;;;;4963361;28;20438;-48
2023/12/27 00:48:12;;;;;;;21.75;2.20;;;;;;;;;;4971559;28;20060;-47
2023/12/27 00:50:40;;;;;;;14.60;1.50;;;;;;;;;;4976871;28;20176;-47
2023/12/27 00:53:08;;;;;;;9.50;1.67;;;;;;;;;;4971552;28;20100;-48
2023/12/27 00:55:36;;;;;;;10.90;1.25;;;;;;;;;;4962766;28;20767;-45
2023/12/27 00:58:03;;;;;;;12.88;1.80;;;;;;;;;;4960291;28;20046;-45
2023/12/27 01:00:31;;;;;;;14.70;1.90;;;;;;;;;;4966729;28;20042;-49
2023/12/27 01:02:59;;;;;;;10.33;1.73;;;;;;;;;;4974575;28;20514;-47
2023/12/27 01:05:28;;;;;;;15.55;2.25;;;;;;;;;;4958750;28;20078;-49
2023/12/27 01:07:56;;;;;;;10.10;1.23;;;;;;;;;;4976672;28;20056;-51
2023/12/27 01:10:24;;;;;;;13.63;1.50;;;;;;;;;;4967887;28;20054;-49
2023/12/27 01:12:53;;;;;;;11.85;2.20;;;;;;;;;;4959279;28;20042;-48
2023/12/27 01:15:21;;;;;;;9.80;1.50;;;;;;;;;;4986024;28;20038;-47
2023/12/27 01:17:49;;;;;;;9.55;1.60;;;;;;;;;;4968616;28;20148;-49
2023/12/27 01:20:17;;;;;;;8.68;1.83;;;;;;;;;;4977298;28;20050;-48
2023/12/27 01:22:47;;;;;;;12.90;2.40;;;;;;;;;;4965392;28;27168;-46
2023/12/27 01:25:16;;;;;;;10.30;1.73;;;;;;;;;;4977234;28;20046;-48
2023/12/27 01:27:46;;;;;;;9.77;1.33;;;;;;;;;;4967416;28;20044;-48
2023/12/27 01:30:16;;;;;;;10.63;1.50;;;;;;;;;;4872571;28;20393;-50
2023/12/27 01:32:44;;;;;;;7.40;1.50;;;;;;;;;;4963310;28;20046;-48
2023/12/27 01:35:12;;;;;;;7.57;1.30;;;;;;;;;;4979255;28;20038;-47
2023/12/27 01:37:41;;;;;;;12.52;2.55;;;;;;;;;;4966053;28;20038;-49
2023/12/27 01:40:10;;;;;;;9.37;1.40;;;;;;;;;;4981558;28;20129;-47
2023/12/27 01:42:39;;;;;;;7.40;1.58;;;;;;;;;;4956007;28;20063;-49
2023/12/27 01:45:07;;;;;;;6.22;1.15;;;;;;;;;;4974864;28;20096;-48
2023/12/27 01:47:37;;;;;;;9.13;1.40;;;;;;;;;;4964862;28;20769;-50
2023/12/27 01:50:08;;;;;;;9.65;1.92;;;;;;;;;;4978479;28;20041;-48
2023/12/27 01:52:36;;;;;;;7.30;1.30;;;;;;;;;;4975260;28;20476;-48
2023/12/27 01:55:04;;;;;;;6.60;1.40;;;;;;;;;;4965647;28;20038;-46
2023/12/27 01:57:33;;;;;;;10.48;1.88;;;;;;;;;;4968530;28;20133;-47
2023/12/27 02:00:01;;;;;;;6.13;1.52;;;;;;;;;;4980632;28;20038;-50
2023/12/27 02:02:29;;;;;;;5.72;1.40;;;;;;;;;;4966551;28;20065;-50
2023/12/27 02:04:57;;;;;;;5.70;1.80;;;;;;;;;;4971156;28;20045;-48
2023/12/27 02:07:25;;;;;;;6.25;1.80;;;;;;;;;;4957817;28;20049;-47
2023/12/27 02:09:58;;;;;;;6.78;2.00;;;;;;;;;;4983446;28;20042;-48
2023/12/27 02:12:27;;;;;;;8.85;2.13;;;;;;;;;;4981088;28;20060;-50
2023/12/27 02:14:56;;;;;;;8.20;2.13;;;;;;;;;;4950303;28;20046;-46
2023/12/27 02:17:26;;;;;;;7.30;2.20;;;;;;;;;;4980465;28;20463;-49
2023/12/27 02:20:12;;;;;;;7.97;2.53;;;;;;;;;;4979473;28;20175;-48
2023/12/27 02:22:40;;;;;;;11.65;2.70;;;;;;;;;;4968957;28;20060;-47
2023/12/27 02:25:09;;;;;;;10.82;3.10;;;;;;;;;;4977776;28;20046;-47
2023/12/27 02:27:37;;;;;;;10.35;2.65;;;;;;;;;;4969953;28;20643;-47
2023/12/27 02:30:05;;;;;;;9.13;2.90;;;;;;;;;;4850743;28;20044;-48
2023/12/27 02:32:33;;;;;;;7.05;2.78;;;;;;;;;;4969717;28;20049;-49
2023/12/27 02:35:01;;;;;;;8.15;3.03;;;;;;;;;;4976783;28;20034;-47
2023/12/27 02:37:29;;;;;;;7.75;2.88;;;;;;;;;;4978744;28;20036;-51
2023/12/27 02:39:59;;;;;;;8.98;2.88;;;;;;;;;;4980478;28;20040;-46
2023/12/27 02:42:28;;;;;;;8.93;3.07;;;;;;;;;;4959819;28;20044;-46
2023/12/27 02:44:56;;;;;;;8.63;2.85;;;;;;;;;;4969966;28;20056;-48
2023/12/27 02:47:25;;;;;;;7.13;2.42;;;;;;;;;;4975722;28;20894;-45
2023/12/27 02:49:52;;;;;;;10.23;2.65;;;;;;;;;;4977654;28;20046;-49
2023/12/27 02:52:20;;;;;;;7.35;2.17;;;;;;;;;;4974949;28;20488;-48
2023/12/27 02:54:48;;;;;;;8.03;2.80;;;;;;;;;;4986914;28;20534;-49
2023/12/27 02:57:16;;;;;;;7.10;2.92;;;;;;;;;;4961613;28;20583;-47
2023/12/27 02:59:45;;;;;;;10.60;3.08;;;;;;;;;;4990107;28;20046;-45
2023/12/27 03:02:12;;;;;;;7.78;2.58;;;;;;;;;;4969556;28;20046;-46
2023/12/27 03:04:40;;;;;;;7.90;2.70;;;;;;;;;;4981526;28;20050;-46
2023/12/27 03:07:08;;;;;;;10.13;2.70;;;;;;;;;;4983543;28;20042;-46
2023/12/27 03:09:36;;;;;;;8.57;2.60;;;;;;;;;;4977206;28;20046;-49
2023/12/27 03:12:04;;;;;;;13.13;3.08;;;;;;;;;;4979900;28;20886;-50
2023/12/27 03:14:32;;;;;;;9.10;2.55;;;;;;;;;;4970615;28;20042;-46
2023/12/27 03:17:01;;;;;;;8.38;2.55;;;;;;;;;;4987907;28;20053;-48
2023/12/27 03:19:29;;;;;;;10.33;3.03;;;;;;;;;;4967415;28;20046;-49
2023/12/27 03:21:56;;;;;;;10.35;2.70;;;;;;;;;;4990803;28;20073;-47
2023/12/27 03:24:24;;;;;;;7.82;2.25;;;;;;;;;;4974253;28;20042;-47
2023/12/27 03:26:52;;;;;;;9.73;2.03;;;;;;;;;;4984051;28;20092;-48
2023/12/27 03:29:20;;;;;;;7.40;1.80;;;;;;;;;;4917058;28;20049;-47
2023/12/27 03:31:48;;;;;;;7.07;1.37;;;;;;;;;;4921020;28;20050;-48
2023/12/27 03:34:17;;;;;;;6.45;1.05;;;;;;;;;;4971340;28;20052;-46
2023/12/27 03:36:45;;;;;;;5.43;1.00;;;;;;;;;;4978360;28;20046;-47
2023/12/27 03:39:13;;;;;;;4.05;0.70;;;;;;;;;;4981051;28;20038;-49
2023/12/27 03:41:40;;;;;;;6.38;1.08;;;;;;;;;;4976413;28;20128;-51
2023/12/27 03:44:08;;;;;;;4.50;0.90;;;;;;;;;;4987609;28;20075;-47
2023/12/27 03:46:36;;;;;;;6.32;1.13;;;;;;;;;;4979028;28;20545;-48
2023/12/27 03:49:04;;;;;;;9.15;1.20;;;;;;;;;;4978668;28;20182;-49
2023/12/27 03:51:33;;;;;;;7.68;1.45;;;;;;;;;;4970047;28;20076;-47
2023/12/27 03:54:01;;;;;;;7.75;1.20;;;;;;;;;;4991072;28;20053;-48
2023/12/27 03:56:31;;;;;;;7.97;1.27;;;;;;;;;;4993635;28;20468;-47
2023/12/27 03:59:03;;;;;;;7.57;1.25;;;;;;;;;;4963417;28;20212;-47
2023/12/27 04:01:31;;;;;;;5.60;1.25;;;;;;;;;;4988263;28;20053;-48
2023/12/27 04:03:58;;;;;;;6.25;1.90;;;;;;;;;;4980315;28;20042;-47
2023/12/27 04:06:26;;;;;;;9.70;1.88;;;;;;;;;;4977835;28;20042;-47
2023/12/27 04:08:55;;;;;;;9.20;1.13;;;;;;;;;;4959063;28;20050;-46
2023/12/27 04:11:23;;;;;;;8.75;1.63;;;;;;;;;;4952629;28;20501;-50
2023/12/27 04:13:51;;;;;;;9.45;1.35;;;;;;;;;;4987317;28;20100;-46
2023/12/27 04:16:19;;;;;;;11.77;2.00;;;;;;;;;;4967265;28;20049;-46
2023/12/27 04:18:49;;;;;;;7.93;1.75;;;;;;;;;;4979680;28;20030;-46
2023/12/27 04:21:20;;;;;;;8.27;2.37;;;;;;;;;;4986909;28;20057;-48
2023/12/27 04:23:47;;;;;;;12.80;2.30;;;;;;;;;;4968981;28;20385;-47
2023/12/27 04:26:17;;;;;;;11.63;2.38;;;;;;;;;;4992993;28;20736;-47
2023/12/27 04:29:02;;;;;;;12.95;2.22;;;;;;;;;;4929176;28;20046;-47
2023/12/27 04:31:30;;;;;;;11.90;2.00;;;;;;;;;;4926661;28;20580;-50
2023/12/27 04:33:57;;;;;;;7.67;2.37;;;;;;;;;;4975339;28;20045;-47
2023/12/27 04:36:24;;;;;;;13.85;2.35;;;;;;;;;;4975176;28;20540;-47
2023/12/27 04:38:52;;;;;;;13.00;2.72;;;;;;;;;;4977474;28;20049;-47
2023/12/27 04:41:22;;;;;;;17.60;2.17;;;;;;;;;;4969182;28;20034;-48
2023/12/27 04:43:50;;;;;;;13.15;2.13;;;;;;;;;;4981707;28;20069;-50
2023/12/27 04:46:18;;;;;;;14.73;2.40;;;;;;;;;;4975955;28;20080;-49
2023/12/27 04:48:45;;;;;;;15.15;2.10;;;;;;;;;;4972079;28;20053;-52
2023/12/27 04:51:13;;;;;;;12.63;2.38;;;;;;;;;;4978437;28;20038;-49
2023/12/27 04:53:41;;;;;;;13.82;3.08;;;;;;;;;;4967345;28;20136;-47
2023/12/27 04:56:09;;;;;;;11.63;2.55;;;;;;;;;;4988023;28;20356;-53
2023/12/27 04:58:38;;;;;;;15.33;2.97;;;;;;;;;;4980694;28;20049;-52
2023/12/27 05:01:06;;;;;;;20.70;2.88;;;;;;;;;;4980494;28;20052;-49
2023/12/27 05:03:37;;;;;;;14.77;3.33;;;;;;;;;;4969057;28;20133;-50
2023/12/27 05:06:08;;;;;;;15.98;2.78;;;;;;;;;;4979437;28;20050;-48
2023/12/27 05:08:38;;;;;;;14.60;3.30;;;;;;;;;;4975897;28;20513;-50
2023/12/27 05:11:10;;;;;;;18.33;3.27;;;;;;;;;;4986670;28;20042;-52
2023/12/27 05:13:40;;;;;;;11.00;2.03;;;;;;;;;;4966431;28;20464;-49
2023/12/27 05:16:12;;;;;;;17.77;3.28;;;;;;;;;;4976822;28;20066;-49
2023/12/27 05:18:40;;;;;;;13.45;3.60;;;;;;;;;;4978014;28;20053;-48
2023/12/27 05:21:09;;;;;;;12.82;3.38;;;;;;;;;;4980478;28;20088;-48
2023/12/27 05:23:36;;;;;;;12.53;3.33;;;;;;;;;;4962085;28;20372;-51
2023/12/27 05:26:07;;;;;;;11.32;3.20;;;;;;;;;;4991741;28;20057;-50
2023/12/27 05:28:34;;;;;;;13.90;3.40;;;;;;;;;;4972959;28;20046;-49
2023/12/27 05:31:04;;;;;;;18.35;3.60;;;;;;;;;;4859735;28;20042;-51
2023/12/27 05:33:32;;;;;;;14.32;3.50;;;;;;;;;;4978797;28;20056;-50
2023/12/27 05:36:00;;;;;;;13.27;3.37;;;;;;;;;;4981650;28;20522;-52
2023/12/27 05:38:28;;;;;;;13.20;3.22;;;;;;;;;;4982628;28;20038;-53
2023/12/27 05:40:56;;;;;;;16.85;3.35;;;;;;;;;;4982890;28;20056;-48
2023/12/27 05:43:24;;;;;;;15.35;4.00;;;;;;;;;;4980816;28;20586;-53
2023/12/27 05:45:52;;;;;;;13.90;3.50;;;;;;;;;;4976132;28;20052;-52
2023/12/27 05:48:21;;;;;;;16.00;4.20;;;;;;;;;;4977983;28;20132;-48
2023/12/27 05:50:49;;;;;;;18.35;4.05;;;;;;;;;;4956802;28;20038;-49
2023/12/27 05:53:17;;;;;;;11.90;3.42;;;;;;;;;;4978787;28;20061;-52
2023/12/27 05:55:44;;;;;;;15.93;3.28;;;;;;;;;;4966182;28;20046;-48
2023/12/27 05:58:12;;;;;;;18.45;3.70;;;;;;;;;;4972900;28;20148;-50
2023/12/27 06:00:40;;;;;;;17.27;3.20;;;;;;;;;;4976394;28;20049;-51
2023/12/27 06:03:08;;;;;;;17.30;3.45;;;;;;;;;;4964169;28;20041;-49
2023/12/27 06:05:37;;;;;;;13.43;3.28;;;;;;;;;;4982686;28;20057;-50
2023/12/27 06:08:05;;;;;;;15.25;3.40;;;;;;;;;;4968356;28;20045;-52
2023/12/27 06:10:33;;;;;;;21.25;4.10;;;;;;;;;;4971789;28;20443;-48
2023/12/27 06:13:01;;;;;;;18.27;4.27;;;;;;;;;;4974056;28;20122;-49
2023/12/27 06:15:28;;;;;;;18.63;3.42;;;;;;;;;;4978404;28;20408;-51
2023/12/27 06:17:56;;;;;;;13.65;3.25;;;;;;;;;;4976625;28;20069;-52
2023/12/27 06:20:25;;;;;;;15.23;3.13;;;;;;;;;;4978205;28;20041;-48
2023/12/27 06:22:54;;;;;;;11.70;3.58;;;;;;;;;;4983928;28;20037;-50
2023/12/27 06:25:22;;;;;;;15.37;3.90;;;;;;;;;;4972079;28;20046;-48
2023/12/27 06:27:49;;;;;;;14.15;3.58;;;;;;;;;;4967059;28;20508;-50
2023/12/27 06:30:17;;;;;;;19.75;3.40;;;;;;;;;;4858791;28;20065;-52
2023/12/27 06:32:45;;;;;;;18.67;3.38;;;;;;;;;;4964860;28;20045;-50
2023/12/27 06:35:13;;;;;;;20.45;3.50;;;;;;;;;;4980322;28;20049;-50
2023/12/27 06:37:40;;;;;;;14.50;3.33;;;;;;;;;;4962504;28;20271;-46
2023/12/27 06:40:12;;;;;;;11.75;2.97;;;;;;;;;;4968425;28;20053;-47
2023/12/27 06:42:39;;;;;;;15.20;3.33;;;;;;;;;;4963386;28;20048;-51
2023/12/27 06:45:08;;;;;;;10.40;3.10;;;;;;;;;;4961525;28;20049;-50
2023/12/27 06:47:36;;;;;;;10.68;2.97;;;;;;;;;;4961837;28;20042;-50
2023/12/27 06:50:04;;;;;;;12.33;3.50;;;;;;;;;;4971409;28;20075;-50
2023/12/27 06:52:32;;;;;;;14.35;3.00;;;;;;;;;;4964117;28;20041;-50
2023/12/27 06:55:00;;;;;;;11.25;3.40;;;;;;;;;;4972763;28;20046;-51
2023/12/27 06:57:29;;;;;;;10.30;3.20;;;;;;;;;;4964106;28;20061;-51
2023/12/27 06:59:57;;;;;;;17.35;3.95;;;;;;;;;;4962697;28;20112;-46
2023/12/27 07:02:25;;;;;;;12.97;3.67;;;;;;;;;;4965982;28;20073;-48
2023/12/27 07:04:53;;;;;;;12.60;3.85;;;;;;;;;;4965040;28;20044;-47
2023/12/27 07:07:21;;;;;;;18.35;4.70;;;;;;;;;;4973530;28;20511;-51
2023/12/27 07:10:09;;;;;;;13.65;3.92;;;;;;;;;;4959275;28;20053;-50
2023/12/27 07:12:41;;;;;;;14.65;4.45;;;;;;;;;;4964737;28;20647;-52
2023/12/27 07:15:10;;;;;;;14.47;3.33;;;;;;;;;;4959392;28;20361;-51
2023/12/27 07:17:38;;;;;;;19.05;3.92;;;;;;;;;;4975772;28;20120;-50
2023/12/27 07:20:10;;;;;;;16.85;3.67;;;;;;;;;;4983771;28;20634;-51
2023/12/27 07:22:38;;;;;;;13.77;3.85;;;;;;;;;;4973193;28;20176;-54
2023/12/27 07:25:06;;;;;;;13.57;3.30;;;;;;;;;;4981670;28;20045;-48
2023/12/27 07:27:34;;;;;;;14.73;3.60;;;;;;;;;;4965711;28;20053;-50
2023/12/27 07:30:05;;;;;;;18.52;4.00;;;;;;;;;;4857727;28;20034;-51
2023/12/27 07:32:33;;;;;;;12.68;4.00;;;;;;;;;;4969101;28;20524;-53
2023/12/27 07:35:01;;;;;;;18.33;3.90;;;;;;;;;;4973819;28;20038;-48
2023/12/27 07:37:29;;;;;;;12.18;3.33;;;;;;;;;;4968242;28;20476;-50
2023/12/27 07:39:56;;;;;;;19.63;5.13;;;;;;;;;;4983239;28;20741;-51
2023/12/27 07:42:25;;;;;;;19.20;3.70;;;;;;;;;;4962900;28;20046;-49
2023/12/27 07:44:53;;;;;;;12.98;2.90;;;;;;;;;;4977619;28;20046;-49
2023/12/27 07:47:23;;;;;;;13.10;2.97;;;;;;;;;;4966339;28;20042;-46
2023/12/27 07:49:51;;;;;;;12.40;3.30;;;;;;;;;;4972126;28;20042;-47
2023/12/27 07:52:18;;;;;;;18.90;4.07;;;;;;;;;;4963719;28;20053;-53
2023/12/27 07:54:47;;;;;;;14.68;3.72;;;;;;;;;;4981331;28;20049;-50
2023/12/27 07:57:15;;;;;;;16.92;4.00;;;;;;;;;;4968955;28;20464;-50
2023/12/27 07:59:47;;;;;;;14.65;3.40;;;;;;;;;;4979544;28;20046;-49
2023/12/27 08:02:14;;;;;;;9.95;2.88;;;;;;;;;;4979300;28;20045;-50
2023/12/27 08:04:44;;;;;;;11.77;3.23;;;;;;;;;;4960055;28;20069;-48
2023/12/27 08:07:11;;;;;;;11.52;2.53;;;;;;;;;;4978196;28;20038;-51
2023/12/27 08:09:39;;;;;;;9.70;2.72;;;;;;;;;;4971192;28;20045;-49
2023/12/27 08:12:07;;;;;;;16.25;3.58;;;;;;;;;;4967068;28;20100;-50
2023/12/27 08:14:38;;;;;;;15.35;3.58;;;;;;;;;;4973962;28;20615;-48
2023/12/27 08:17:07;;;;;;;19.30;3.60;;;;;;;;;;4987989;28;20041;-50
2023/12/27 08:19:35;;;;;;;17.30;3.78;;;;;;;;;;4970283;28;20049;-51
2023/12/27 08:22:04;;;;;;;11.60;3.33;;;;;;;;;;4983065;28;20030;-50
2023/12/27 08:24:32;;;;;;;15.82;3.92;;;;;;;;;;4964645;28;20128;-51
2023/12/27 08:27:00;;;;;;;12.05;4.07;;;;;;;;;;4977043;28;20065;-50
2023/12/27 08:29:27;;;;;;;12.97;3.23;;;;;;;;;;4905430;28;20277;-51
2023/12/27 08:31:55;;;;;;;13.80;3.30;;;;;;;;;;4923743;28;20042;-48
2023/12/27 08:34:23;;;;;;;11.80;3.60;;;;;;;;;;4976264;28;20053;-50
2023/12/27 08:36:51;;;;;;;12.60;3.55;;;;;;;;;;4983514;28;20049;-47
2023/12/27 08:39:20;;;;;;;15.90;4.00;;;;;;;;;;4977302;28;20042;-48
2023/12/27 08:41:48;;;;;;;7.20;2.17;;;;;;;;;;4976559;28;20493;-53
2023/12/27 08:44:17;;;;;;;9.38;2.08;;;;;;;;;;4970889;28;20064;-46
2023/12/27 08:46:44;;;;;;;9.35;2.85;;;;;;;;;;4978161;28;20042;-49
2023/12/27 08:49:12;;;;;;;10.60;2.60;;;;;;;;;;4969698;28;20046;-50
2023/12/27 08:51:40;;;;;;;10.40;3.03;;;;;;;;;;4971934;28;20563;-47
2023/12/27 08:54:08;;;;;;;10.00;2.40;;;;;;;;;;4968614;28;20643;-52
2023/12/27 08:56:38;;;;;;;6.60;2.20;;;;;;;;;;4970206;28;20408;-49
2023/12/27 08:59:06;;;;;;;9.25;2.53;;;;;;;;;;4979551;28;20049;-52
2023/12/27 09:01:34;;;;;;;8.73;2.35;;;;;;;;;;4975789;28;20041;-52
2023/12/27 09:04:02;;;;;;;10.10;2.33;;;;;;;;;;4973752;28;20091;-52
2023/12/27 09:06:29;;;;;;;8.07;2.63;;;;;;;;;;4972069;28;20042;-47
2023/12/27 09:08:57;;;;;;;13.70;2.65;;;;;;;;;;4973425;28;20259;-51
2023/12/27 09:11:26;;;;;;;10.50;2.67;;;;;;;;;;4978689;28;20484;-47
2023/12/27 09:14:11;;;;;;;10.77;2.20;;;;;;;;;;5000334;28;20894;-46
2023/12/27 09:16:39;;;;;;;13.35;2.70;;;;;;;;;;4970016;28;20662;-46
2023/12/27 09:19:06;;;;;;;9.67;2.00;;;;;;;;;;4981043;28;20057;-46
2023/12/27 09:21:34;;;;;;;11.82;2.40;;;;;;;;;;4972230;28;20100;-46
2023/12/27 09:24:03;;;;;;;12.13;2.95;;;;;;;;;;4976339;28;20053;-51
2023/12/27 09:26:31;;;;;;;8.68;2.53;;;;;;;;;;4971637;28;20041;-47
2023/12/27 09:28:59;;;;;;;9.73;2.70;;;;;;;;;;4927980;28;20038;-48
2023/12/27 09:31:30;;;;;;;7.67;2.13;;;;;;;;;;4902130;28;20046;-47
2023/12/27 09:33:59;;;;;;;7.70;2.33;;;;;;;;;;4983460;28;20050;-50
2023/12/27 09:36:27;;;;;;;7.93;2.17;;;;;;;;;;4967368;28;20309;-50
2023/12/27 09:39:00;;;;;;;9.02;2.58;;;;;;;;;;4981391;28;20050;-50
2023/12/27 09:41:28;;;;;;;5.22;1.27;;;;;;;;;;4979901;28;20034;-47
2023/12/27 09:43:56;;;;;;;7.23;1.70;;;;;;;;;;4980181;28;20042;-47
2023/12/27 09:46:24;;;;;;;9.55;1.60;;;;;;;;;;4972272;28;20034;-47
2023/12/27 09:48:53;;;;;;;8.63;2.40;;;;;;;;;;4975634;28;20045;-47
2023/12/27 09:51:23;;;;;;;12.27;1.98;;;;;;;;;;4982476;28;20444;-45
2023/12/27 09:53:52;;;;;;;10.27;2.40;;;;;;;;;;4977639;28;20070;-46
2023/12/27 09:56:20;;;;;;;11.93;2.37;;;;;;;;;;4962338;28;20069;-48
2023/12/27 09:58:49;;;;;;;11.32;2.83;;;;;;;;;;4978583;28;20066;-46
2023/12/27 10:01:24;;;;;;;10.25;2.00;;;;;;;;;;4974901;28;20057;-46
2023/12/27 10:03:55;;;;;;;9.73;2.25;;;;;;;;;;4982651;28;20053;-47
2023/12/27 10:06:27;;;;;;;8.98;2.20;;;;;;;;;;4973036;28;20038;-49
2023/12/27 10:08:55;;;;;;;8.93;2.57;;;;;;;;;;4982640;28;20046;-46
2023/12/27 10:11:25;;;;;;;5.85;1.70;;;;;;;;;;4973610;28;20042;-47
2023/12/27 10:13:53;;;;;;;7.22;1.85;;;;;;;;;;4987691;28;20056;-47
2023/12/27 10:16:20;;;;;;;7.43;1.70;;;;;;;;;;4982862;28;20049;-47
2023/12/27 10:18:48;;;;;;;7.90;2.22;;;;;;;;;;4983389;28;20041;-45
2023/12/27 10:21:18;;;;;;;8.23;1.87;;;;;;;;;;4973882;28;20092;-51
2023/12/27 10:23:46;;;;;;;9.30;2.03;;;;;;;;;;4968208;28;20065;-49
2023/12/27 10:26:14;;;;;;;12.23;2.10;;;;;;;;;;4969685;28;20033;-48
2023/12/27 10:28:42;;;;;;;10.38;1.85;;;;;;;;;;4972836;28;20057;-45
2023/12/27 10:31:10;;;;;;;5.97;1.73;;;;;;;;;;4852694;28;20045;-45
2023/12/27 10:33:41;;;;;;;8.30;1.73;;;;;;;;;;4971932;28;20471;-47
2023/12/27 10:36:10;;;;;;;12.23;2.50;;;;;;;;;;4966994;28;20041;-49
2023/12/27 10:38:40;;;;;;;5.97;1.50;;;;;;;;;;4981661;28;20125;-46
2023/12/27 10:41:07;;;;;;;8.00;1.60;;;;;;;;;;4972307;28;20033;-50
2023/12/27 10:43:35;;;;;;;6.20;2.25;;;;;;;;;;4979691;28;20037;-48
2023/12/27 10:46:07;;;;;;;7.30;1.93;;;;;;;;;;4969656;28;20605;-50
2023/12/27 10:48:38;;;;;;;6.07;1.40;;;;;;;;;;4975216;28;20046;-46
2023/12/27 10:51:07;;;;;;;9.48;1.70;;;;;;;;;;4983560;28;20461;-48
2023/12/27 10:53:35;;;;;;;5.85;1.40;;;;;;;;;;4969101;28;20042;-45
2023/12/27 10:56:04;;;;;;;6.00;1.52;;;;;;;;;;4984473;28;20651;-46
2023/12/27 10:58:33;;;;;;;5.03;1.40;;;;;;;;;;4973061;28;20038;-48
2023/12/27 11:01:01;;;;;;;6.63;1.52;;;;;;;;;;4973380;28;20049;-49
2023/12/27 11:03:30;;;;;;;7.47;1.73;;;;;;;;;;4966685;28;20042;-47
2023/12/27 11:05:59;;;;;;;10.98;2.00;;;;;;;;;;4982090;28;20045;-46
2023/12/27 11:08:28;;;;;;;10.13;1.85;;;;;;;;;;4968784;28;20049;-48
2023/12/27 11:10:57;;;;;;;8.23;1.47;;;;;;;;;;4986047;28;20048;-46
2023/12/27 11:13:27;;;;;;;6.82;1.60;;;;;;;;;;4969465;28;20551;-48
2023/12/27 11:15:56;;;;;;;8.20;2.10;;;;;;;;;;4985650;28;20096;-45
2023/12/27 11:18:26;;;;;;;8.80;2.25;;;;;;;;;;4968025;28;20116;-46
2023/12/27 11:20:55;;;;;;;9.55;2.53;;;;;;;;;;4970987;28;20408;-47
2023/12/27 11:23:24;;;;;;;8.43;1.47;;;;;;;;;;4963316;28;20426;-47
2023/12/27 11:25:53;;;;;;;10.93;1.65;;;;;;;;;;4983932;28;20057;-47
2023/12/27 11:28:21;;;;;;;12.43;2.25;;;;;;;;;;4961237;28;20512;-46
2023/12/27 11:30:50;;;;;;;6.72;2.05;;;;;;;;;;4846831;28;20038;-51
2023/12/27 11:33:21;;;;;;;7.72;1.90;;;;;;;;;;4968520;28;20052;-46
2023/12/27 11:35:51;;;;;;;10.93;2.00;;;;;;;;;;4958029;28;20574;-49
2023/12/27 11:38:20;;;;;;;9.20;2.28;;;;;;;;;;4984462;28;20053;-49
2023/12/27 11:40:47;;;;;;;12.95;2.92;;;;;;;;;;4972697;28;20073;-45
2023/12/27 11:43:23;;;;;;;10.80;2.40;;;;;;;;;;4982947;28;20042;-46
2023/12/27 11:45:59;;;;;;;11.35;2.40;;;;;;;;;;4968463;28;20042;-47
2023/12/27 11:48:28;;;;;;;13.60;2.60;;;;;;;;;;4981620;28;20065;-45
2023/12/27 11:50:57;;;;;;;7.72;2.25;;;;;;;;;;4965703;28;20579;-48
2023/12/27 11:53:27;;;;;;;11.10;2.75;;;;;;;;;;4975775;28;20096;-48
2023/12/27 11:55:58;;;;;;;8.93;1.65;;;;;;;;;;4975645;28;20120;-49
2023/12/27 11:58:31;;;;;;;12.15;2.45;;;;;;;;;;4970370;28;20070;-49
2023/12/27 12:01:14;;;;;;;12.73;3.00;;;;;;;;;;4975882;28;20212;-52
2023/12/27 12:03:51;;;;;;;12.82;2.08;;;;;;;;;;4972269;28;20050;-47
2023/12/27 12:06:28;;;;;;;13.38;2.15;;;;;;;;;;4965114;28;20037;-45
2023/12/27 12:08:56;;;;;;;14.48;2.20;;;;;;;;;;4970105;28;20049;-45
2023/12/27 12:11:28;;;;;;;11.02;2.60;;;;;;;;;;4980946;28;20061;-49
2023/12/27 12:13:56;;;;;;;13.23;2.43;;;;;;;;;;4987728;28;20042;-46
2023/12/27 12:16:24;;;;;;;12.18;2.33;;;;;;;;;;4971641;28;20769;-48
2023/12/27 12:18:54;;;;;;;7.93;2.55;;;;;;;;;;4979177;28;20618;-46
2023/12/27 12:21:22;;;;;;;11.05;3.08;;;;;;;;;;4981075;28;20060;-46
2023/12/27 12:23:50;;;;;;;9.32;2.13;;;;;;;;;;4964945;28;20042;-45
2023/12/27 12:26:18;;;;;;;13.93;2.03;;;;;;;;;;4979170;28;20045;-46
2023/12/27 12:28:58;;;;;;;11.82;2.00;;;;;;;;;;4964835;28;20048;-46
2023/12/27 12:31:26;;;;;;;10.98;1.92;;;;;;;;;;4913182;28;20042;-46
2023/12/27 12:33:55;;;;;;;11.50;2.05;;;;;;;;;;4980035;28;20073;-47
2023/12/27 12:36:23;;;;;;;8.88;2.55;;;;;;;;;;4970877;28;20078;-49
2023/12/27 12:38:52;;;;;;;11.10;2.17;;;;;;;;;;4989004;28;20491;-46
2023/12/27 12:41:21;;;;;;;10.52;2.20;;;;;;;;;;4975016;28;20040;-46
2023/12/27 12:43:49;;;;;;;10.05;2.03;;;;;;;;;;4986900;28;20050;-46
2023/12/27 12:46:17;;;;;;;9.93;1.67;;;;;;;;;;4978720;28;20144;-47
2023/12/27 12:48:45;;;;;;;6.63;1.52;;;;;;;;;;4980264;28;20042;-49
2023/12/27 12:51:16;;;;;;;8.53;1.73;;;;;;;;;;4976686;28;20061;-47
2023/12/27 12:53:44;;;;;;;9.90;1.35;;;;;;;;;;4958019;28;20040;-47
2023/12/27 12:56:12;;;;;;;8.77;2.25;;;;;;;;;;4977766;28;20049;-45
2023/12/27 12:58:41;;;;;;;7.80;1.55;;;;;;;;;;4976115;28;20042;-46
2023/12/27 13:01:10;;;;;;;10.32;2.55;;;;;;;;;;4981998;28;20119;-47
2023/12/27 13:03:41;;;;;;;12.57;2.00;;;;;;;;;;4973270;28;20041;-47
2023/12/27 13:06:09;;;;;;;9.82;1.95;;;;;;;;;;4978864;28;20045;-45
2023/12/27 13:08:38;;;;;;;10.45;2.60;;;;;;;;;;4976424;28;20307;-46
2023/12/27 13:11:06;;;;;;;9.73;2.05;;;;;;;;;;4991753;28;20046;-45
2023/12/27 13:13:34;;;;;;;10.05;2.15;;;;;;;;;;4966238;28;20042;-45
2023/12/27 13:16:01;;;;;;;11.10;1.90;;;;;;;;;;4989590;28;20663;-48
2023/12/27 13:18:30;;;;;;;8.05;1.80;;;;;;;;;;4977386;28;20071;-45
2023/12/27 13:20:58;;;;;;;7.45;1.80;;;;;;;;;;4981396;28;20053;-47
2023/12/27 13:23:26;;;;;;;8.00;1.70;;;;;;;;;;4967942;28;20933;-49
2023/12/27 13:25:55;;;;;;;7.45;1.27;;;;;;;;;;4985044;28;20045;-46
2023/12/27 13:28:25;;;;;;;7.03;1.00;;;;;;;;;;4963640;28;20037;-46
2023/12/27 13:30:57;;;;;;;6.93;1.15;;;;;;;;;;4858848;28;20057;-47
2023/12/27 13:33:25;;;;;;;6.50;1.30;;;;;;;;;;4981667;28;20044;-46
2023/12/27 13:35:53;;;;;;;6.95;1.17;;;;;;;;;;4969519;28;20294;-47
2023/12/27 13:38:21;;;;;;;6.40;1.40;;;;;;;;;;4974935;28;20905;-46
2023/12/27 13:40:49;;;;;;;8.23;1.67;;;;;;;;;;4966220;28;20061;-50
2023/12/27 13:43:18;;;;;;;9.35;1.73;;;;;;;;;;4984965;28;20037;-46
2023/12/27 13:45:46;;;;;;;7.70;1.67;;;;;;;;;;4977061;28;20488;-47
2023/12/27 13:48:14;;;;;;;9.10;1.33;;;;;;;;;;4976596;28;20330;-47
2023/12/27 13:50:45;;;;;;;5.90;1.50;;;;;;;;;;4973239;28;20124;-48
2023/12/27 13:53:12;;;;;;;8.03;1.53;;;;;;;;;;4980435;28;20046;-47
2023/12/27 13:55:40;;;;;;;6.90;1.73;;;;;;;;;;4978809;28;20037;-48
2023/12/27 13:58:08;;;;;;;8.07;1.67;;;;;;;;;;4969425;28;20062;-47
2023/12/27 14:00:37;;;;;;;9.48;1.42;;;;;;;;;;4982502;28;20049;-48
2023/12/27 14:03:06;;;;;;;5.55;1.40;;;;;;;;;;4968980;28;20056;-46
2023/12/27 14:05:37;;;;;;;6.67;1.50;;;;;;;;;;4986442;28;20052;-48
2023/12/27 14:08:05;;;;;;;7.53;1.40;;;;;;;;;;4980391;28;20061;-46
2023/12/27 14:10:34;;;;;;;6.93;1.30;;;;;;;;;;4974475;28;20033;-47
2023/12/27 14:13:03;;;;;;;6.47;0.93;;;;;;;;;;4968966;28;20125;-47
2023/12/27 14:15:31;;;;;;;7.03;1.30;;;;;;;;;;4978264;28;20053;-48
2023/12/27 14:18:00;;;;;;;7.80;1.27;;;;;;;;;;4971616;28;20049;-49
2023/12/27 14:20:29;;;;;;;8.88;1.13;;;;;;;;;;4977974;28;20117;-46
2023/12/27 14:22:57;;;;;;;8.40;1.20;;;;;;;;;;4980897;28;21702;-46
2023/12/27 14:25:25;;;;;;;9.77;1.40;;;;;;;;;;4971033;28;20052;-45
2023/12/27 14:27:53;;;;;;;10.98;2.13;;;;;;;;;;4966576;28;20670;-48
2023/12/27 14:30:21;;;;;;;7.60;1.83;;;;;;;;;;4835979;28;22357;-46
2023/12/27 14:32:49;;;;;;;7.50;1.65;;;;;;;;;;4968016;28;20282;-48
2023/12/27 14:35:18;;;;;;;11.85;1.42;;;;;;;;;;4977035;28;20052;-46
2023/12/27 14:37:46;;;;;;;7.38;1.10;;;;;;;;;;4970148;28;20049;-49
2023/12/27 14:40:14;;;;;;;4.82;1.10;;;;;;;;;;4983633;28;20042;-45
2023/12/27 14:42:45;;;;;;;8.00;1.43;;;;;;;;;;4963785;28;20044;-46
2023/12/27 14:45:13;;;;;;;4.32;0.80;;;;;;;;;;4982663;28;20061;-45